createdAt,value
2017-11-18T00:00:36.085Z,99.99
2017-11-18T00:01:36.556Z,99.99
2017-11-18T00:02:35.977Z,99.99
2017-11-18T00:03:36.426Z,99.99
2017-11-18T00:04:36.203Z,99.99
2017-11-18T00:05:36.641Z,99.99
2017-11-18T00:06:36.067Z,99.99
2017-11-18T00:07:35.962Z,99.99
2017-11-18T00:08:36.510Z,99.99
2017-11-18T00:09:35.921Z,99.99
2017-11-18T00:10:36.472Z,99.99
2017-11-18T00:11:36.010Z,99.99
2017-11-18T00:12:35.921Z,99.99
2017-11-18T00:13:38.157Z,99.99
2017-11-18T00:14:36.642Z,99.99
2017-11-18T00:15:35.994Z,99.99
2017-11-18T00:16:36.528Z,99.99
2017-11-18T00:17:36.010Z,99.99
2017-11-18T00:18:36.494Z,99.99
2017-11-18T00:19:35.884Z,99.99
2017-11-18T00:20:35.895Z,99.99
2017-11-18T00:21:36.884Z,99.99
2017-11-18T00:22:36.337Z,99.99
2017-11-18T00:23:36.164Z,99.99
2017-11-18T00:24:36.640Z,99.99
2017-11-18T00:25:36.070Z,99.99
2017-11-18T00:26:36.849Z,99.99
2017-11-18T00:27:36.204Z,99.99
2017-11-18T00:28:36.638Z,99.99
2017-11-18T00:29:36.668Z,99.99
2017-11-18T00:30:36.112Z,99.99
2017-11-18T00:31:36.626Z,99.99
2017-11-18T00:32:36.114Z,99.99
2017-11-18T00:33:36.550Z,99.99
2017-11-18T00:34:35.995Z,99.99
2017-11-18T00:35:35.745Z,99.99
2017-11-18T00:36:36.189Z,99.99
2017-11-18T00:37:37.049Z,99.99
2017-11-18T00:38:36.528Z,99.99
2017-11-18T00:39:35.963Z,99.99
2017-11-18T00:40:36.373Z,99.99
2017-11-18T00:41:35.876Z,99.99
2017-11-18T00:42:36.366Z,99.99
2017-11-18T00:43:35.846Z,99.99
2017-11-18T00:44:36.310Z,99.99
2017-11-18T00:45:35.816Z,99.99
2017-11-18T00:46:36.058Z,99.99
2017-11-18T00:47:36.951Z,99.99
2017-11-18T00:48:36.339Z,99.99
2017-11-18T00:49:35.788Z,99.99
2017-11-18T00:50:36.181Z,99.99
2017-11-18T00:51:36.627Z,99.99
2017-11-18T00:52:36.042Z,99.99
2017-11-18T00:53:37.110Z,99.99
2017-11-18T00:54:36.181Z,99.99
2017-11-18T00:55:36.605Z,99.99
2017-11-18T00:56:36.024Z,99.99
2017-11-18T00:57:36.445Z,99.99
2017-11-18T00:58:35.841Z,99.99
2017-11-18T00:59:36.328Z,99.99
2017-11-18T01:00:35.662Z,99.99
2017-11-18T01:01:36.099Z,99.99
2017-11-18T01:02:36.493Z,99.99
2017-11-18T01:03:35.900Z,99.99
2017-11-18T01:04:36.371Z,99.99
2017-11-18T01:05:35.795Z,99.99
2017-11-18T01:06:36.151Z,99.99
2017-11-18T01:07:35.967Z,99.99
2017-11-18T01:08:37.040Z,99.99
2017-11-18T01:09:36.483Z,99.99
2017-11-18T01:10:35.915Z,99.99
2017-11-18T01:11:36.318Z,99.99
2017-11-18T01:12:35.720Z,99.99
2017-11-18T01:13:36.118Z,99.99
2017-11-18T01:14:36.580Z,99.99
2017-11-18T01:15:35.666Z,99.99
2017-11-18T01:16:35.996Z,99.99
2017-11-18T01:17:36.349Z,99.99
2017-11-18T01:18:36.419Z,99.99
2017-11-18T01:19:36.012Z,99.99
2017-11-18T01:20:36.585Z,99.99
2017-11-18T01:21:36.019Z,99.99
2017-11-18T01:22:36.369Z,99.99
2017-11-18T01:23:35.761Z,99.99
2017-11-18T01:24:36.251Z,99.99
2017-11-18T01:25:36.934Z,99.99
2017-11-18T01:26:36.304Z,99.99
2017-11-18T01:27:35.674Z,99.99
2017-11-18T01:28:36.021Z,99.99
2017-11-18T01:29:35.708Z,99.99
2017-11-18T01:30:36.226Z,99.99
2017-11-18T01:31:35.707Z,99.99
2017-11-18T01:32:36.543Z,99.99
2017-11-18T01:33:35.938Z,99.99
2017-11-18T01:34:36.333Z,99.99
2017-11-18T01:35:36.006Z,99.99
2017-11-18T01:36:36.533Z,99.99
2017-11-18T01:37:35.958Z,99.99
2017-11-18T01:38:36.370Z,99.99
2017-11-18T01:39:35.712Z,99.99
2017-11-18T01:40:36.745Z,99.99
2017-11-18T01:41:36.084Z,99.99
2017-11-18T01:42:36.223Z,99.99
2017-11-18T01:43:36.923Z,99.99
2017-11-18T01:44:36.269Z,99.99
2017-11-18T01:45:35.700Z,99.99
2017-11-18T01:46:35.919Z,99.99
2017-11-18T01:47:36.313Z,99.99
2017-11-18T01:49:02.929Z,99.99
2017-11-18T01:49:33.390Z,99.99
2017-11-18T01:50:33.685Z,99.99
2017-11-18T01:51:34.223Z,99.99
2017-11-18T01:52:33.633Z,99.99
2017-11-18T01:53:34.180Z,99.99
2017-11-18T01:54:33.532Z,99.99
2017-11-18T01:55:33.889Z,99.99
2017-11-18T01:56:34.243Z,99.63
2017-11-18T01:57:33.649Z,99.44
2017-11-18T01:58:34.016Z,99.72
2017-11-18T01:59:33.362Z,99.53
2017-11-18T02:00:33.756Z,99.63
2017-11-18T02:01:34.039Z,99.91
2017-11-18T02:02:33.426Z,99.99
2017-11-18T02:03:33.893Z,99.99
2017-11-18T02:04:34.236Z,99.99
2017-11-18T02:05:33.620Z,99.82
2017-11-18T02:06:33.962Z,99.82
2017-11-18T02:07:33.399Z,99.91
2017-11-18T02:08:34.235Z,99.99
2017-11-18T02:09:33.573Z,99.99
2017-11-18T02:10:34.096Z,99.82
2017-11-18T02:11:33.419Z,99.53
2017-11-18T02:12:34.033Z,99.06
2017-11-18T02:13:33.378Z,99.25
2017-11-18T02:14:34.166Z,99.63
2017-11-18T02:15:34.205Z,99.63
2017-11-18T02:16:33.638Z,99.82
2017-11-18T02:17:34.003Z,99.82
2017-11-18T02:18:33.404Z,99.63
2017-11-18T02:19:33.703Z,99.53
2017-11-18T02:20:34.077Z,99.53
2017-11-18T02:21:33.522Z,99.63
2017-11-18T02:22:33.923Z,99.44
2017-11-18T02:23:34.298Z,98.87
2017-11-18T02:24:33.645Z,98.68
2017-11-18T02:25:34.092Z,98.49
2017-11-18T02:26:33.426Z,98.49
2017-11-18T02:27:33.728Z,98.68
2017-11-18T02:28:33.976Z,98.87
2017-11-18T02:29:33.357Z,99.06
2017-11-18T02:30:33.679Z,99.34
2017-11-18T02:31:34.038Z,99.44
2017-11-18T02:32:33.427Z,98.87
2017-11-18T02:33:34.346Z,98.68
2017-11-18T02:34:34.019Z,98.68
2017-11-18T02:35:33.311Z,98.68
2017-11-18T02:36:33.709Z,98.68
2017-11-18T02:37:34.112Z,98.39
2017-11-18T02:38:33.391Z,98.11
2017-11-18T02:39:34.021Z,98.39
2017-11-18T02:40:33.322Z,98.68
2017-11-18T02:41:33.828Z,98.49
2017-11-18T02:42:34.341Z,98.39
2017-11-18T02:43:33.891Z,98.49
2017-11-18T02:44:34.224Z,97.92
2017-11-18T02:45:33.519Z,97.54
2017-11-18T02:46:33.854Z,97.54
2017-11-18T02:47:34.172Z,97.73
2017-11-18T02:48:33.545Z,97.64
2017-11-18T02:49:33.666Z,97.16
2017-11-18T02:50:34.109Z,96.97
2017-11-18T02:51:33.426Z,97.26
2017-11-18T02:52:33.764Z,97.35
2017-11-18T02:53:34.169Z,97.64
2017-11-18T02:54:34.109Z,97.54
2017-11-18T02:55:33.888Z,97.26
2017-11-18T02:56:33.442Z,97.26
2017-11-18T02:57:34.262Z,96.78
2017-11-18T02:58:33.959Z,96.59
2017-11-18T02:59:33.405Z,96.22
2017-11-18T03:00:33.912Z,96.50
2017-11-18T03:01:34.645Z,96.59
2017-11-18T03:02:33.920Z,96.69
2017-11-18T03:03:34.240Z,96.97
2017-11-18T03:04:33.511Z,96.78
2017-11-18T03:05:33.947Z,96.59
2017-11-18T03:06:34.313Z,96.22
2017-11-18T03:07:33.683Z,95.93
2017-11-18T03:08:34.004Z,96.03
2017-11-18T03:09:33.381Z,96.12
2017-11-18T03:10:34.124Z,96.03
2017-11-18T03:11:33.482Z,96.03
2017-11-18T03:12:33.825Z,95.93
2017-11-18T03:13:33.348Z,95.84
2017-11-18T03:14:33.659Z,96.03
2017-11-18T03:15:33.990Z,96.22
2017-11-18T03:16:33.584Z,96.41
2017-11-18T03:17:33.464Z,95.93
2017-11-18T03:18:33.815Z,95.45
2017-11-18T03:19:34.124Z,95.55
2017-11-18T03:20:33.715Z,95.55
2017-11-18T03:21:34.005Z,95.55
2017-11-18T03:22:33.352Z,95.84
2017-11-18T03:23:33.349Z,95.74
2017-11-18T03:24:34.355Z,95.74
2017-11-18T03:25:33.679Z,95.65
2017-11-18T03:26:34.044Z,95.55
2017-11-18T03:27:33.516Z,95.65
2017-11-18T03:28:33.745Z,95.45
2017-11-18T03:29:34.044Z,95.45
2017-11-18T03:30:33.449Z,95.65
2017-11-18T03:31:33.845Z,96.12
2017-11-18T03:32:34.207Z,96.31
2017-11-18T03:33:33.517Z,96.50
2017-11-18T03:34:33.846Z,96.69
2017-11-18T03:35:34.472Z,96.87
2017-11-18T03:36:33.785Z,96.41
2017-11-18T03:37:34.121Z,96.41
2017-11-18T03:38:33.473Z,96.69
2017-11-18T03:39:33.746Z,96.69
2017-11-18T03:40:34.102Z,96.69
2017-11-18T03:41:34.301Z,96.69
2017-11-18T03:42:33.802Z,96.41
2017-11-18T03:43:34.176Z,96.12
2017-11-18T03:44:33.573Z,95.93
2017-11-18T03:45:33.840Z,95.84
2017-11-18T03:46:33.952Z,95.74
2017-11-18T03:47:34.282Z,96.03
2017-11-18T03:48:34.113Z,96.03
2017-11-18T03:49:33.644Z,95.93
2017-11-18T03:50:34.128Z,95.93
2017-11-18T03:51:33.496Z,96.12
2017-11-18T03:52:33.745Z,95.55
2017-11-18T03:53:34.111Z,95.36
2017-11-18T03:54:33.475Z,95.17
2017-11-18T03:55:33.421Z,95.26
2017-11-18T03:56:34.049Z,95.45
2017-11-18T03:57:33.291Z,95.60
2017-11-18T03:58:33.666Z,95.79
2017-11-18T03:59:34.016Z,95.69
2017-11-18T04:00:33.362Z,95.50
2017-11-18T04:01:34.009Z,95.79
2017-11-18T04:02:33.496Z,95.98
2017-11-18T04:03:33.856Z,96.31
2017-11-18T04:04:33.812Z,96.12
2017-11-18T04:05:34.146Z,95.74
2017-11-18T04:06:33.692Z,95.88
2017-11-18T04:07:34.165Z,95.88
2017-11-18T04:08:33.540Z,95.69
2017-11-18T04:09:33.889Z,95.69
2017-11-18T04:10:34.234Z,95.79
2017-11-18T04:11:34.004Z,95.88
2017-11-18T04:12:33.469Z,96.08
2017-11-18T04:13:33.722Z,96.08
2017-11-18T04:14:34.062Z,95.79
2017-11-18T04:15:33.615Z,95.79
2017-11-18T04:16:34.065Z,95.50
2017-11-18T04:17:33.393Z,95.12
2017-11-18T04:18:33.857Z,95.22
2017-11-18T04:19:33.836Z,95.50
2017-11-18T04:20:34.203Z,95.69
2017-11-18T04:21:33.602Z,96.08
2017-11-18T04:22:33.950Z,95.88
2017-11-18T04:23:33.314Z,95.60
2017-11-18T04:24:33.749Z,95.69
2017-11-18T04:25:33.807Z,95.60
2017-11-18T04:26:34.485Z,95.31
2017-11-18T04:27:33.783Z,95.12
2017-11-18T04:28:34.060Z,95.03
2017-11-18T04:29:34.081Z,95.41
2017-11-18T04:30:33.359Z,95.60
2017-11-18T04:31:33.720Z,95.22
2017-11-18T04:32:34.554Z,95.41
2017-11-18T04:33:34.002Z,95.41
2017-11-18T04:34:33.359Z,95.41
2017-11-18T04:35:33.893Z,95.41
2017-11-18T04:36:34.078Z,95.31
2017-11-18T04:37:33.552Z,95.12
2017-11-18T04:38:34.160Z,95.22
2017-11-18T04:39:34.084Z,95.41
2017-11-18T04:40:33.473Z,95.50
2017-11-18T04:41:33.870Z,95.50
2017-11-18T04:42:34.074Z,95.60
2017-11-18T04:43:33.962Z,95.98
2017-11-18T04:44:33.268Z,95.69
2017-11-18T04:45:33.608Z,95.69
2017-11-18T04:46:33.913Z,95.31
2017-11-18T04:47:33.440Z,95.12
2017-11-18T04:48:33.451Z,94.93
2017-11-18T04:49:33.726Z,94.84
2017-11-18T04:50:33.801Z,95.12
2017-11-18T04:51:34.125Z,95.31
2017-11-18T04:52:34.151Z,95.22
2017-11-18T04:53:34.087Z,95.41
2017-11-18T04:54:33.448Z,95.41
2017-11-18T04:55:33.793Z,95.41
2017-11-18T04:56:34.169Z,95.03
2017-11-18T04:57:33.508Z,94.84
2017-11-18T04:58:34.212Z,95.12
2017-11-18T04:59:33.725Z,94.84
2017-11-18T05:00:33.491Z,95.41
2017-11-18T05:01:33.828Z,95.31
2017-11-18T05:02:34.197Z,95.22
2017-11-18T05:03:34.081Z,94.93
2017-11-18T05:04:33.501Z,95.12
2017-11-18T05:05:33.885Z,95.41
2017-11-18T05:06:33.806Z,95.31
2017-11-18T05:07:34.478Z,95.31
2017-11-18T05:08:33.887Z,95.12
2017-11-18T05:09:33.395Z,94.84
2017-11-18T05:10:33.831Z,94.84
2017-11-18T05:11:33.448Z,94.84
2017-11-18T05:12:33.832Z,95.12
2017-11-18T05:13:34.206Z,94.74
2017-11-18T05:14:34.068Z,95.22
2017-11-18T05:15:33.720Z,95.22
2017-11-18T05:16:34.206Z,95.12
2017-11-18T05:17:33.370Z,95.50
2017-11-18T05:18:33.856Z,95.12
2017-11-18T05:19:33.477Z,95.12
2017-11-18T05:20:33.940Z,95.31
2017-11-18T05:21:33.292Z,95.60
2017-11-18T05:22:33.664Z,95.12
2017-11-18T05:23:34.442Z,94.93
2017-11-18T05:24:33.996Z,94.74
2017-11-18T05:25:33.422Z,94.56
2017-11-18T05:26:33.887Z,95.03
2017-11-18T05:27:33.911Z,94.93
2017-11-18T05:28:33.332Z,94.93
2017-11-18T05:29:34.182Z,95.03
2017-11-18T05:30:33.625Z,95.31
2017-11-18T05:31:33.707Z,95.50
2017-11-18T05:32:34.046Z,95.50
2017-11-18T05:33:47.442Z,95.03
2017-11-18T05:34:48.075Z,94.84
2017-11-18T05:35:47.879Z,95.31
2017-11-18T05:36:48.381Z,95.31
2017-11-18T05:37:47.832Z,95.31
2017-11-18T05:38:48.248Z,95.41
2017-11-18T05:39:47.952Z,95.60
2017-11-18T05:40:47.661Z,95.31
2017-11-18T05:41:48.181Z,95.41
2017-11-18T05:42:47.740Z,95.31
2017-11-18T05:43:48.150Z,95.50
2017-11-18T05:44:47.587Z,95.41
2017-11-18T05:45:48.068Z,95.69
2017-11-18T05:46:47.458Z,95.60
2017-11-18T05:47:47.926Z,95.69
2017-11-18T05:48:48.326Z,95.41
2017-11-18T05:49:47.757Z,95.41
2017-11-18T05:50:47.882Z,95.69
2017-11-18T05:51:48.584Z,95.50
2017-11-18T05:52:48.189Z,95.60
2017-11-18T05:53:47.645Z,95.41
2017-11-18T05:54:48.254Z,95.31
2017-11-18T05:55:48.239Z,95.79
2017-11-18T05:56:47.731Z,95.88
2017-11-18T05:57:47.469Z,95.88
2017-11-18T05:58:47.716Z,95.69
2017-11-18T05:59:48.462Z,95.69
2017-11-18T06:00:47.922Z,95.88
2017-11-18T06:01:48.284Z,95.98
2017-11-18T06:02:47.806Z,96.26
2017-11-18T06:03:48.270Z,96.26
2017-11-18T06:04:48.083Z,96.55
2017-11-18T06:05:48.066Z,96.55
2017-11-18T06:06:47.543Z,96.36
2017-11-18T06:07:48.055Z,96.26
2017-11-18T06:08:47.596Z,96.17
2017-11-18T06:09:48.075Z,96.55
2017-11-18T06:10:47.657Z,96.45
2017-11-18T06:11:48.257Z,96.08
2017-11-18T06:12:47.793Z,95.69
2017-11-18T06:13:48.258Z,95.79
2017-11-18T06:14:47.839Z,95.88
2017-11-18T06:15:48.328Z,95.98
2017-11-18T06:16:47.908Z,95.98
2017-11-18T06:17:48.530Z,95.79
2017-11-18T06:18:48.322Z,96.17
2017-11-18T06:19:48.132Z,96.26
2017-11-18T06:20:47.844Z,96.26
2017-11-18T06:21:48.436Z,96.36
2017-11-18T06:22:47.881Z,96.36
2017-11-18T06:23:47.950Z,96.45
2017-11-18T06:24:47.802Z,96.64
2017-11-18T06:25:48.366Z,96.55
2017-11-18T06:26:47.810Z,96.73
2017-11-18T06:27:48.316Z,96.83
2017-11-18T06:28:47.619Z,96.83
2017-11-18T06:29:47.854Z,96.83
2017-11-18T06:30:48.254Z,96.83
2017-11-18T06:31:47.737Z,97.07
2017-11-18T06:32:49.385Z,97.26
2017-11-18T06:33:48.123Z,97.16
2017-11-18T06:34:47.716Z,96.97
2017-11-18T06:35:48.249Z,97.12
2017-11-18T06:36:48.248Z,97.02
2017-11-18T06:37:47.783Z,96.92
2017-11-18T06:38:47.978Z,96.78
2017-11-18T06:39:48.166Z,96.92
2017-11-18T06:40:48.322Z,97.02
2017-11-18T06:41:48.246Z,96.83
2017-11-18T06:42:47.969Z,96.73
2017-11-18T06:43:47.637Z,96.73
2017-11-18T06:44:48.383Z,96.45
2017-11-18T06:45:47.888Z,96.55
2017-11-18T06:46:47.642Z,96.73
2017-11-18T06:47:48.011Z,96.92
2017-11-18T06:48:47.730Z,96.83
2017-11-18T06:49:48.182Z,96.73
2017-11-18T06:50:47.914Z,96.83
2017-11-18T06:51:48.905Z,97.12
2017-11-18T06:52:47.759Z,96.83
2017-11-18T06:53:48.281Z,96.64
2017-11-18T06:54:47.948Z,96.45
2017-11-18T06:55:47.597Z,96.55
2017-11-18T06:56:48.521Z,96.73
2017-11-18T06:57:48.094Z,96.55
2017-11-18T06:58:47.610Z,96.64
2017-11-18T06:59:48.368Z,96.73
2017-11-18T07:00:47.961Z,96.83
2017-11-18T07:01:48.286Z,97.21
2017-11-18T07:02:48.483Z,97.12
2017-11-18T07:03:48.321Z,96.83
2017-11-18T07:04:47.920Z,96.92
2017-11-18T07:05:48.059Z,97.21
2017-11-18T07:06:47.670Z,96.92
2017-11-18T07:07:48.189Z,96.83
2017-11-18T07:08:48.014Z,97.02
2017-11-18T07:09:47.936Z,97.21
2017-11-18T07:10:48.526Z,97.31
2017-11-18T07:11:48.064Z,97.21
2017-11-18T07:12:48.458Z,97.02
2017-11-18T07:13:48.027Z,96.83
2017-11-18T07:14:48.015Z,96.64
2017-11-18T07:15:47.652Z,96.64
2017-11-18T07:16:48.119Z,96.73
2017-11-18T07:17:48.523Z,96.83
2017-11-18T07:18:48.195Z,96.92
2017-11-18T07:19:47.785Z,97.02
2017-11-18T07:20:48.345Z,96.83
2017-11-18T07:21:48.450Z,96.64
2017-11-18T07:22:47.934Z,96.73
2017-11-18T07:23:47.497Z,96.92
2017-11-18T07:24:48.774Z,96.73
2017-11-18T07:25:47.812Z,96.83
2017-11-18T07:26:48.305Z,96.83
2017-11-18T07:27:47.910Z,96.73
2017-11-18T07:28:48.495Z,96.73
2017-11-18T07:29:48.039Z,96.83
2017-11-18T07:30:47.694Z,96.45
2017-11-18T07:31:48.293Z,96.36
2017-11-18T07:32:47.866Z,96.55
2017-11-18T07:33:48.531Z,96.55
2017-11-18T07:34:48.249Z,96.36
2017-11-18T07:35:47.944Z,96.36
2017-11-18T07:36:47.711Z,96.26
2017-11-18T07:37:48.275Z,96.26
2017-11-18T07:38:49.056Z,96.17
2017-11-18T07:39:47.713Z,95.88
2017-11-18T07:40:47.928Z,96.08
2017-11-18T07:41:48.360Z,96.08
2017-11-18T07:42:48.685Z,96.26
2017-11-18T07:43:48.814Z,96.08
2017-11-18T07:44:48.234Z,95.88
2017-11-18T07:45:48.540Z,96.17
2017-11-18T07:46:47.840Z,95.69
2017-11-18T07:47:48.411Z,95.69
2017-11-18T07:48:48.029Z,95.88
2017-11-18T07:49:47.643Z,95.50
2017-11-18T07:50:48.618Z,95.50
2017-11-18T07:51:48.144Z,95.50
2017-11-18T07:52:47.882Z,95.31
2017-11-18T07:53:47.945Z,95.50
2017-11-18T07:54:47.493Z,95.50
2017-11-18T07:55:48.281Z,95.12
2017-11-18T07:56:48.074Z,95.22
2017-11-18T07:57:47.918Z,94.84
2017-11-18T07:58:47.845Z,94.46
2017-11-18T07:59:48.509Z,94.56
2017-11-18T08:00:47.821Z,94.27
2017-11-18T08:01:48.652Z,94.27
2017-11-18T08:02:48.370Z,94.08
2017-11-18T08:03:48.173Z,94.27
2017-11-18T08:04:47.870Z,94.08
2017-11-18T08:05:48.509Z,93.99
2017-11-18T08:06:48.092Z,93.70
2017-11-18T08:07:47.781Z,93.51
2017-11-18T08:08:48.676Z,93.51
2017-11-18T08:09:48.366Z,93.70
2017-11-18T08:10:48.007Z,93.51
2017-11-18T08:11:47.545Z,93.32
2017-11-18T08:12:48.112Z,93.23
2017-11-18T08:13:48.388Z,93.32
2017-11-18T08:14:49.876Z,93.27
2017-11-18T08:15:48.559Z,93.46
2017-11-18T08:16:48.298Z,93.37
2017-11-18T08:17:49.018Z,93.65
2017-11-18T08:18:47.736Z,94.03
2017-11-18T08:19:48.488Z,93.65
2017-11-18T08:20:48.112Z,93.18
2017-11-18T08:21:48.304Z,93.46
2017-11-18T08:22:48.720Z,93.46
2017-11-18T08:23:47.580Z,93.18
2017-11-18T08:24:48.239Z,93.27
2017-11-18T08:25:49.437Z,93.37
2017-11-18T08:26:48.050Z,93.18
2017-11-18T08:27:52.098Z,93.46
2017-11-18T08:28:47.784Z,92.80
2017-11-18T08:29:48.389Z,92.52
2017-11-18T08:30:48.208Z,92.71
2017-11-18T08:31:48.302Z,92.99
2017-11-18T08:32:48.453Z,92.42
2017-11-18T08:33:49.094Z,92.52
2017-11-18T08:34:47.817Z,92.61
2017-11-18T08:35:47.714Z,92.52
2017-11-18T08:36:47.787Z,92.90
2017-11-18T08:37:47.721Z,92.71
2017-11-18T08:38:47.895Z,93.18
2017-11-18T08:39:48.042Z,92.99
2017-11-18T08:40:47.631Z,92.33
2017-11-18T08:41:48.187Z,92.04
2017-11-18T08:43:01.385Z,91.85
2017-11-18T08:43:51.127Z,91.47
2017-11-18T08:44:50.683Z,91.19
2017-11-18T08:45:50.727Z,91.09
2017-11-18T08:46:50.233Z,91.66
2017-11-18T08:47:53.911Z,91.56
2017-11-18T08:48:49.441Z,91.56
2017-11-18T08:49:50.503Z,92.33
2017-11-18T08:50:47.744Z,92.14
2017-11-18T08:51:50.851Z,91.85
2017-11-18T08:52:49.332Z,91.75
2017-11-18T08:53:49.688Z,91.75
2017-11-18T08:54:49.167Z,92.14
2017-11-18T08:55:49.247Z,91.47
2017-11-18T08:56:47.894Z,91.66
2017-11-18T08:57:48.838Z,91.75
2017-11-18T08:58:48.254Z,91.47
2017-11-18T08:59:48.453Z,91.56
2017-11-18T09:00:48.714Z,91.09
2017-11-18T09:01:48.333Z,91.19
2017-11-18T09:02:48.420Z,91.19
2017-11-18T09:03:48.706Z,91.19
2017-11-18T09:04:48.234Z,91.00
2017-11-18T09:05:48.362Z,91.19
2017-11-18T09:06:48.715Z,90.81
2017-11-18T09:07:47.652Z,91.28
2017-11-18T09:08:48.897Z,91.56
2017-11-18T09:09:48.448Z,91.38
2017-11-18T09:10:50.663Z,91.56
2017-11-18T09:11:48.586Z,91.94
2017-11-18T09:12:47.864Z,91.38
2017-11-18T09:13:48.293Z,91.47
2017-11-18T09:14:49.271Z,91.47
2017-11-18T09:15:48.100Z,92.04
2017-11-18T09:16:47.817Z,91.85
2017-11-18T09:17:48.041Z,91.85
2017-11-18T09:18:47.812Z,91.56
2017-11-18T09:19:48.570Z,91.38
2017-11-18T09:20:49.213Z,91.94
2017-11-18T09:21:48.523Z,91.94
2017-11-18T09:22:48.175Z,92.14
2017-11-18T09:23:48.519Z,92.14
2017-11-18T09:24:48.500Z,91.56
2017-11-18T09:25:50.729Z,91.42
2017-11-18T09:26:53.358Z,90.66
2017-11-18T09:27:52.193Z,90.66
2017-11-18T09:28:49.037Z,90.09
2017-11-18T09:29:47.908Z,89.43
2017-11-18T09:30:50.006Z,89.05
2017-11-18T09:31:50.057Z,89.43
2017-11-18T09:32:49.355Z,89.43
2017-11-18T09:33:48.134Z,89.33
2017-11-18T09:34:49.953Z,89.62
2017-11-18T09:35:47.779Z,89.14
2017-11-18T09:36:49.712Z,89.14
2017-11-18T09:37:48.047Z,89.53
2017-11-18T09:38:48.129Z,89.62
2017-11-18T09:39:48.138Z,89.90
2017-11-18T09:40:48.270Z,89.53
2017-11-18T09:41:47.957Z,89.53
2017-11-18T09:42:48.066Z,90.09
2017-11-18T09:43:47.902Z,90.00
2017-11-18T09:44:47.808Z,89.53
2017-11-18T09:45:47.748Z,90.00
2017-11-18T09:46:48.721Z,90.28
2017-11-18T09:47:47.856Z,90.09
2017-11-18T09:48:47.936Z,90.09
2017-11-18T09:49:48.872Z,90.19
2017-11-18T09:50:48.391Z,90.09
2017-11-18T09:51:48.485Z,90.28
2017-11-18T09:52:48.133Z,90.57
2017-11-18T09:53:48.352Z,90.57
2017-11-18T09:54:47.982Z,90.76
2017-11-18T09:55:47.924Z,89.90
2017-11-18T09:56:48.562Z,90.19
2017-11-18T09:57:48.890Z,90.85
2017-11-18T09:58:48.657Z,90.76
2017-11-18T09:59:48.615Z,90.00
2017-11-18T10:00:48.713Z,89.53
2017-11-18T10:01:48.372Z,90.00
2017-11-18T10:02:48.087Z,89.81
2017-11-18T10:03:47.683Z,89.81
2017-11-18T10:04:49.015Z,89.90
2017-11-18T10:05:47.862Z,90.47
2017-11-18T10:06:49.476Z,89.62
2017-11-18T10:07:48.673Z,89.72
2017-11-18T10:08:48.531Z,90.00
2017-11-18T10:09:49.132Z,89.53
2017-11-18T10:10:49.219Z,89.90
2017-11-18T10:11:47.912Z,89.72
2017-11-18T10:12:49.790Z,89.33
2017-11-18T10:13:47.979Z,89.72
2017-11-18T10:14:48.635Z,89.72
2017-11-18T10:15:48.336Z,89.90
2017-11-18T10:16:48.491Z,89.33
2017-11-18T10:17:49.612Z,88.95
2017-11-18T10:18:48.387Z,88.76
2017-11-18T10:19:49.504Z,89.14
2017-11-18T10:20:51.590Z,89.24
2017-11-18T10:21:48.985Z,88.57
2017-11-18T10:22:48.345Z,88.39
2017-11-18T10:23:48.258Z,87.86
2017-11-18T10:24:51.370Z,87.19
2017-11-18T10:25:49.451Z,87.57
2017-11-18T10:26:49.657Z,87.01
2017-11-18T10:27:48.488Z,86.82
2017-11-18T10:28:48.809Z,86.72
2017-11-18T10:29:47.840Z,86.63
2017-11-18T10:30:48.505Z,87.01
2017-11-18T10:31:55.853Z,87.01
2017-11-18T10:32:48.688Z,87.29
2017-11-18T10:33:47.949Z,87.29
2017-11-18T10:34:49.925Z,87.76
2017-11-18T10:35:48.700Z,87.38
2017-11-18T10:36:48.231Z,87.57
2017-11-18T10:37:48.116Z,87.67
2017-11-18T10:38:48.046Z,86.72
2017-11-18T10:39:48.767Z,85.96
2017-11-18T10:40:48.719Z,85.96
2017-11-18T10:41:48.676Z,85.96
2017-11-18T10:42:49.524Z,86.15
2017-11-18T10:43:48.415Z,86.24
2017-11-18T10:44:49.311Z,86.34
2017-11-18T10:45:50.262Z,85.57
2017-11-18T10:46:48.083Z,82.43
2017-11-18T10:47:47.860Z,81.14
2017-11-18T10:48:48.597Z,81.48
2017-11-18T10:49:48.445Z,82.62
2017-11-18T10:50:48.954Z,84.01
2017-11-18T10:51:48.798Z,84.86
2017-11-18T10:52:48.504Z,85.34
2017-11-18T10:53:48.418Z,86.34
2017-11-18T10:54:48.966Z,86.91
2017-11-18T10:55:48.740Z,87.76
2017-11-18T10:56:48.303Z,88.15
2017-11-18T10:57:48.034Z,87.29
2017-11-18T10:58:48.037Z,87.57
2017-11-18T10:59:49.277Z,87.38
2017-11-18T11:00:48.062Z,87.19
2017-11-18T11:01:48.773Z,87.67
2017-11-18T11:02:48.697Z,87.67
2017-11-18T11:03:48.887Z,88.15
2017-11-18T11:04:47.818Z,87.67
2017-11-18T11:05:48.481Z,87.29
2017-11-18T11:06:48.332Z,87.57
2017-11-18T11:07:48.261Z,87.57
2017-11-18T11:08:48.474Z,87.19
2017-11-18T11:09:48.360Z,86.86
2017-11-18T11:10:48.363Z,85.62
2017-11-18T11:11:48.822Z,84.62
2017-11-18T11:12:49.233Z,83.00
2017-11-18T11:13:48.152Z,83.58
2017-11-18T11:14:48.373Z,84.10
2017-11-18T11:15:48.396Z,84.95
2017-11-18T11:16:51.174Z,85.43
2017-11-18T11:17:49.111Z,85.53
2017-11-18T11:18:49.919Z,86.67
2017-11-18T11:19:48.571Z,86.43
2017-11-18T11:20:48.455Z,87.62
2017-11-18T11:21:48.294Z,87.90
2017-11-18T11:22:48.558Z,88.76
2017-11-18T11:23:48.430Z,88.95
2017-11-18T11:24:48.483Z,89.14
2017-11-18T11:25:48.479Z,89.33
2017-11-18T11:26:48.251Z,90.14
2017-11-18T11:27:48.199Z,91.85
2017-11-18T11:28:47.881Z,91.66
2017-11-18T11:29:49.725Z,92.32
2017-11-18T11:30:48.423Z,93.18
2017-11-18T11:31:48.334Z,93.56
2017-11-18T11:32:48.065Z,92.90
2017-11-18T11:33:47.904Z,93.18
2017-11-18T11:34:48.627Z,93.18
2017-11-18T11:35:48.353Z,93.65
2017-11-18T11:36:48.102Z,92.32
2017-11-18T11:37:47.918Z,92.13
2017-11-18T11:38:48.705Z,92.23
2017-11-18T11:39:48.487Z,91.66
2017-11-18T11:40:48.011Z,90.80
2017-11-18T11:41:48.290Z,90.90
2017-11-18T11:42:48.221Z,90.52
2017-11-18T11:43:48.456Z,90.33
2017-11-18T11:44:48.280Z,90.56
2017-11-18T11:45:48.198Z,90.05
2017-11-18T11:46:48.598Z,89.09
2017-11-18T11:47:48.689Z,88.28
2017-11-18T11:48:51.406Z,87.85
2017-11-18T11:50:48.803Z,84.99
2017-11-18T11:51:48.829Z,81.03
2017-11-18T11:52:48.651Z,81.71
2017-11-18T11:54:04.398Z,84.05
2017-11-18T11:54:48.152Z,85.66
2017-11-18T11:55:48.579Z,86.57
2017-11-18T11:56:48.324Z,87.52
2017-11-18T11:57:48.446Z,87.71
2017-11-18T11:58:48.553Z,87.71
2017-11-18T11:59:48.441Z,88.28
2017-11-18T12:00:48.692Z,89.23
2017-11-18T12:01:48.700Z,89.14
2017-11-18T12:02:48.555Z,88.85
2017-11-18T12:03:48.527Z,88.76
2017-11-18T12:04:49.469Z,89.42
2017-11-18T12:05:48.196Z,89.52
2017-11-18T12:06:48.053Z,89.38
2017-11-18T12:07:50.113Z,89.76
2017-11-18T12:08:48.522Z,89.86
2017-11-18T12:09:48.566Z,89.80
2017-11-18T12:10:48.474Z,90.09
2017-11-18T12:11:48.248Z,90.19
2017-11-18T12:12:49.961Z,90.42
2017-11-18T12:13:48.723Z,90.71
2017-11-18T12:14:49.127Z,90.71
2017-11-18T12:15:48.875Z,91.28
2017-11-18T12:16:48.700Z,90.80
2017-11-18T12:17:48.608Z,90.90
2017-11-18T12:18:48.966Z,90.90
2017-11-18T12:19:48.792Z,90.94
2017-11-18T12:20:48.780Z,90.66
2017-11-18T12:21:48.659Z,90.00
2017-11-18T12:22:49.121Z,89.61
2017-11-18T12:23:47.944Z,88.95
2017-11-18T12:24:48.187Z,88.67
2017-11-18T12:25:49.140Z,89.23
2017-11-18T12:26:48.096Z,89.61
2017-11-18T12:27:48.049Z,90.37
2017-11-18T12:28:48.834Z,90.37
2017-11-18T12:29:49.331Z,90.71
2017-11-18T12:30:48.265Z,90.71
2017-11-18T12:31:48.250Z,91.28
2017-11-18T12:32:49.327Z,90.99
2017-11-18T12:33:48.371Z,91.09
2017-11-18T12:34:48.051Z,91.52
2017-11-18T12:35:48.493Z,91.04
2017-11-18T12:36:48.316Z,90.75
2017-11-18T12:37:48.153Z,90.19
2017-11-18T12:38:48.125Z,90.00
2017-11-18T12:39:48.608Z,90.00
2017-11-18T12:40:48.612Z,90.00
2017-11-18T12:41:48.734Z,90.56
2017-11-18T12:42:48.621Z,90.94
2017-11-18T12:43:49.401Z,91.04
2017-11-18T12:44:49.050Z,91.38
2017-11-18T12:45:48.210Z,91.56
2017-11-18T12:46:48.300Z,92.32
2017-11-18T12:47:48.252Z,92.80
2017-11-18T12:48:48.500Z,92.71
2017-11-18T12:49:49.028Z,92.80
2017-11-18T12:50:48.898Z,93.75
2017-11-18T12:51:48.850Z,93.56
2017-11-18T12:52:48.790Z,93.84
2017-11-18T12:53:48.028Z,93.84